createdAt,value
2022-10-11T00:01:17.829Z,5.30
2022-10-11T00:03:44.267Z,5.30
2022-10-11T00:06:10.622Z,5.22
2022-10-11T00:08:39.080Z,5.12
2022-10-11T00:11:07.292Z,5.07
2022-10-11T00:13:33.822Z,5.01
2022-10-11T00:16:00.425Z,4.96
2022-10-11T00:18:27.023Z,4.95
2022-10-11T00:21:08.309Z,4.87
2022-10-11T00:23:35.201Z,4.84
2022-10-11T00:26:04.892Z,4.79
2022-10-11T00:28:31.759Z,4.69
2022-10-11T00:30:58.245Z,4.60
2022-10-11T00:33:24.727Z,4.51
2022-10-11T00:35:51.175Z,4.50
2022-10-11T00:38:18.139Z,4.51
2022-10-11T00:40:45.816Z,4.49
2022-10-11T00:43:17.810Z,4.53
2022-10-11T00:46:01.444Z,4.54
2022-10-11T00:48:42.130Z,4.43
2022-10-11T00:51:32.672Z,4.34
2022-10-11T00:54:01.303Z,4.31
2022-10-11T00:56:33.805Z,4.29
2022-10-11T00:59:04.258Z,4.26
2022-10-11T01:01:31.043Z,4.26
2022-10-11T01:03:57.962Z,4.27
2022-10-11T01:06:24.666Z,4.27
2022-10-11T01:08:52.772Z,4.28
2022-10-11T01:11:23.359Z,4.29
2022-10-11T01:14:08.656Z,4.29
2022-10-11T01:16:39.235Z,4.29
2022-10-11T01:19:33.661Z,4.31
2022-10-11T01:22:18.740Z,4.33
2022-10-11T01:25:23.754Z,4.36
2022-10-11T01:28:25.625Z,4.37
2022-10-11T01:30:54.851Z,4.36
2022-10-11T01:33:30.291Z,4.35
2022-10-11T01:36:27.573Z,4.32
2022-10-11T01:39:11.354Z,4.34
2022-10-11T01:41:41.203Z,4.35
2022-10-11T01:44:09.278Z,4.36
2022-10-11T01:46:36.671Z,4.37
2022-10-11T01:49:04.720Z,4.37
2022-10-11T01:51:34.532Z,4.36
2022-10-11T01:54:03.931Z,4.33
2022-10-11T01:57:13.369Z,4.32
2022-10-11T02:00:15.175Z,4.34
2022-10-11T02:03:05.095Z,4.34
2022-10-11T02:05:57.687Z,4.33
2022-10-11T02:08:27.423Z,4.29
2022-10-11T02:11:11.620Z,4.30
2022-10-11T02:13:46.305Z,4.28
2022-10-11T02:16:18.718Z,4.21
2022-10-11T02:18:49.974Z,4.14
2022-10-11T02:21:19.372Z,4.11
2022-10-11T02:23:56.177Z,4.08
2022-10-11T02:26:24.923Z,4.06
2022-10-11T02:28:56.639Z,4.06
2022-10-11T02:31:25.012Z,4.00
2022-10-11T02:34:05.350Z,3.93
2022-10-11T02:36:55.312Z,3.80
2022-10-11T02:39:29.615Z,3.79
2022-10-11T02:41:59.809Z,3.81
2022-10-11T02:44:37.653Z,3.83
2022-10-11T02:47:05.375Z,3.86
2022-10-11T02:49:32.439Z,3.87
2022-10-11T02:51:59.180Z,3.89
2022-10-11T02:54:26.126Z,3.91
2022-10-11T02:56:52.571Z,3.90
2022-10-11T02:59:19.139Z,3.89
2022-10-11T03:01:45.569Z,3.91
2022-10-11T03:04:12.007Z,3.94
2022-10-11T03:06:38.369Z,3.96
2022-10-11T03:09:04.727Z,3.98
2022-10-11T03:11:31.146Z,3.99
2022-10-11T03:13:57.479Z,3.99
2022-10-11T03:16:23.984Z,3.97
2022-10-11T03:18:51.098Z,4.01
2022-10-11T03:21:17.443Z,4.01
2022-10-11T03:23:43.863Z,3.96
2022-10-11T03:26:10.209Z,3.93
2022-10-11T03:28:36.646Z,3.91
2022-10-11T03:31:03.989Z,3.88
2022-10-11T03:33:30.364Z,3.87
2022-10-11T03:35:56.734Z,3.86
2022-10-11T03:38:23.186Z,3.81
2022-10-11T03:40:49.958Z,3.78
2022-10-11T03:43:16.547Z,3.75
2022-10-11T03:45:43.174Z,3.70
2022-10-11T03:48:10.543Z,3.66
2022-10-11T03:50:37.594Z,3.67
2022-10-11T03:53:05.021Z,3.69
2022-10-11T03:55:31.431Z,3.70
2022-10-11T03:57:57.862Z,3.73
2022-10-11T04:00:24.492Z,3.73
2022-10-11T04:02:50.907Z,3.74
2022-10-11T04:05:17.296Z,3.75
2022-10-11T04:07:43.662Z,3.76
2022-10-11T04:10:10.199Z,3.76
2022-10-11T04:12:38.294Z,3.74
2022-10-11T04:15:05.957Z,3.74
2022-10-11T04:17:32.333Z,3.71
2022-10-11T04:19:58.683Z,3.70
2022-10-11T04:22:25.097Z,3.66
2022-10-11T04:24:52.104Z,3.65
2022-10-11T04:27:18.533Z,3.63
2022-10-11T04:29:44.852Z,3.57
2022-10-11T04:32:11.265Z,3.54
2022-10-11T04:34:37.983Z,3.53
2022-10-11T04:37:04.335Z,3.55
2022-10-11T04:39:30.753Z,3.53
2022-10-11T04:41:57.086Z,3.52
2022-10-11T04:44:23.662Z,3.53
2022-10-11T04:46:50.015Z,3.56
2022-10-11T04:49:16.339Z,3.61
2022-10-11T04:51:42.782Z,3.64
2022-10-11T04:54:09.110Z,3.65
2022-10-11T04:56:35.511Z,3.65
2022-10-11T04:59:01.828Z,3.67
2022-10-11T05:01:28.174Z,3.73
2022-10-11T05:03:54.686Z,3.79
2022-10-11T05:06:21.056Z,3.86
2022-10-11T05:08:47.423Z,3.91
2022-10-11T05:11:16.274Z,3.97
2022-10-11T05:13:43.840Z,3.98
2022-10-11T05:16:11.649Z,3.99
2022-10-11T05:18:38.954Z,4.00
2022-10-11T05:21:08.951Z,4.02
2022-10-11T05:23:36.701Z,4.02
2022-10-11T05:26:04.192Z,4.02
2022-10-11T05:28:31.585Z,4.04
2022-10-11T05:30:58.292Z,4.05
2022-10-11T05:33:25.245Z,4.08
2022-10-11T05:35:51.873Z,4.09
2022-10-11T05:38:19.003Z,4.10
2022-10-11T05:40:45.430Z,4.12
2022-10-11T05:43:11.930Z,4.10
2022-10-11T05:45:39.826Z,4.12
2022-10-11T05:48:06.541Z,4.15
2022-10-11T05:50:32.930Z,4.17
2022-10-11T05:52:59.449Z,4.20
2022-10-11T05:55:25.926Z,4.21
2022-10-11T05:57:56.498Z,4.26
2022-10-11T06:00:24.361Z,4.28
2022-10-11T06:02:50.768Z,4.30
2022-10-11T06:05:17.446Z,4.31
2022-10-11T06:07:44.708Z,4.30
2022-10-11T06:10:11.245Z,4.31
2022-10-11T06:12:37.660Z,4.35
2022-10-11T06:15:05.046Z,4.42
2022-10-11T06:17:31.612Z,4.50
2022-10-11T06:19:58.146Z,4.60
2022-10-11T06:22:24.547Z,4.72
2022-10-11T06:24:50.884Z,4.73
2022-10-11T06:27:17.239Z,4.79
2022-10-11T06:29:43.610Z,4.91
2022-10-11T06:32:10.052Z,5.00
2022-10-11T06:34:36.393Z,5.13
2022-10-11T06:37:02.833Z,5.22
2022-10-11T06:39:29.227Z,5.41
2022-10-11T06:41:55.583Z,5.70
2022-10-11T06:44:22.003Z,6.36
2022-10-11T06:46:48.497Z,6.95
2022-10-11T06:49:18.240Z,7.60
2022-10-11T06:51:47.129Z,7.82
2022-10-11T06:54:13.592Z,7.60
2022-10-11T06:56:40.787Z,7.42
2022-10-11T06:59:07.197Z,7.12
2022-10-11T07:01:33.635Z,6.89
2022-10-11T07:04:01.553Z,6.87
2022-10-11T07:06:31.052Z,7.14
2022-10-11T07:09:00.210Z,7.03
2022-10-11T07:11:27.870Z,6.92
2022-10-11T07:13:59.817Z,6.86
2022-10-11T07:16:27.771Z,6.82
2022-10-11T07:19:00.570Z,6.85
2022-10-11T07:21:29.309Z,6.89
2022-10-11T07:23:55.762Z,7.22
2022-10-11T07:26:22.175Z,7.65
2022-10-11T07:28:48.795Z,7.98
2022-10-11T07:31:19.826Z,8.14
2022-10-11T07:33:46.451Z,8.41
2022-10-11T07:36:13.305Z,8.72
2022-10-11T07:38:41.002Z,8.85
2022-10-11T07:41:08.168Z,9.12
2022-10-11T07:43:35.433Z,9.35
2022-10-11T07:46:04.662Z,9.17
2022-10-11T07:48:32.670Z,8.96
2022-10-11T07:51:25.992Z,8.81
2022-10-11T07:53:55.693Z,8.69
2022-10-11T07:56:24.881Z,8.67
2022-10-11T07:58:53.462Z,8.64
2022-10-11T08:01:20.346Z,8.63
2022-10-11T08:03:47.650Z,8.60
2022-10-11T08:06:17.031Z,8.59
2022-10-11T08:08:43.384Z,8.65
2022-10-11T08:11:10.395Z,8.74
2022-10-11T08:13:36.820Z,8.81
2022-10-11T08:16:10.215Z,9.03
2022-10-11T08:18:36.589Z,9.14
2022-10-11T08:21:08.226Z,9.32
2022-10-11T08:23:34.703Z,9.47
2022-10-11T08:26:01.793Z,9.64
2022-10-11T08:28:28.499Z,9.81
2022-10-11T08:30:55.220Z,9.95
2022-10-11T08:33:23.616Z,10.11
2022-10-11T08:35:52.138Z,10.20
2022-10-11T08:38:19.494Z,10.28
2022-10-11T08:40:47.646Z,10.30
2022-10-11T08:43:35.629Z,10.45
2022-10-11T08:46:04.700Z,10.61
2022-10-11T08:48:49.091Z,10.72
2022-10-11T08:51:24.813Z,10.86
2022-10-11T08:54:04.683Z,10.97
2022-10-11T08:56:37.632Z,11.05
2022-10-11T08:59:28.299Z,11.09
2022-10-11T09:02:03.182Z,11.14
2022-10-11T09:04:32.194Z,11.21
2022-10-11T09:07:25.753Z,11.23
2022-10-11T09:10:07.314Z,11.32
2022-10-11T09:12:50.471Z,11.40
2022-10-11T09:15:26.065Z,11.43
2022-10-11T09:18:04.160Z,11.45
2022-10-11T09:20:51.800Z,11.50
2022-10-11T09:23:39.536Z,11.53
2022-10-11T09:26:17.544Z,11.58
2022-10-11T09:29:14.264Z,11.65
2022-10-11T09:31:46.018Z,11.71
2022-10-11T09:34:14.458Z,11.80
2022-10-11T09:36:55.849Z,11.87
2022-10-11T09:39:33.123Z,11.93
2022-10-11T09:42:10.889Z,12.00
2022-10-11T09:44:41.553Z,12.12
2022-10-11T09:47:16.227Z,12.22
2022-10-11T09:50:03.693Z,12.32
2022-10-11T09:52:30.060Z,12.39
2022-10-11T09:55:00.389Z,12.47
2022-10-11T09:57:33.025Z,12.57
2022-10-11T10:00:02.576Z,12.64
2022-10-11T10:02:38.547Z,12.76
2022-10-11T10:05:10.976Z,12.88
2022-10-11T10:07:40.909Z,12.96
2022-10-11T10:10:40.264Z,13.06
2022-10-11T10:13:21.012Z,13.16
2022-10-11T10:15:50.815Z,13.31
2022-10-11T10:18:34.347Z,13.38
2022-10-11T10:21:01.832Z,13.56
2022-10-11T10:23:36.696Z,13.59
2022-10-11T10:26:24.904Z,13.69
2022-10-11T10:29:01.298Z,13.83
2022-10-11T10:31:55.321Z,13.98
2022-10-11T10:34:26.251Z,14.00
2022-10-11T10:37:02.213Z,14.22
2022-10-11T10:39:44.508Z,14.40
2022-10-11T10:42:17.190Z,14.53
2022-10-11T10:44:52.363Z,14.63
2022-10-11T10:47:21.814Z,14.66
2022-10-11T10:50:02.441Z,14.53
2022-10-11T10:52:43.537Z,14.69
2022-10-11T10:55:31.382Z,14.89
2022-10-11T10:58:15.071Z,15.08
2022-10-11T11:00:50.300Z,15.05
2022-10-11T11:03:46.326Z,14.90
2022-10-11T11:06:34.152Z,14.89
2022-10-11T11:09:21.175Z,15.29
2022-10-11T11:12:05.470Z,15.56
2022-10-11T11:14:52.119Z,15.39
2022-10-11T11:17:43.527Z,15.39
2022-10-11T11:20:12.813Z,15.71
2022-10-11T11:23:22.031Z,15.97
2022-10-11T11:26:31.323Z,15.90
2022-10-11T11:29:13.475Z,15.94
2022-10-11T11:31:56.682Z,15.90
2022-10-11T11:34:26.647Z,15.79
2022-10-11T11:37:00.199Z,15.65
2022-10-11T11:39:30.650Z,15.53
2022-10-11T11:42:07.726Z,15.38
2022-10-11T11:44:40.184Z,15.29
2022-10-11T11:47:19.867Z,15.28
2022-10-11T11:49:53.295Z,15.27
2022-10-11T11:52:36.142Z,15.29
2022-10-11T11:55:14.211Z,15.28
2022-10-11T11:58:03.280Z,15.28
2022-10-11T12:01:10.080Z,15.28
2022-10-11T12:03:47.334Z,15.37
2022-10-11T12:06:13.845Z,15.37
2022-10-11T12:08:46.263Z,15.32
2022-10-11T12:11:25.451Z,15.32
2022-10-11T12:13:53.933Z,15.16
2022-10-11T12:16:22.044Z,15.14
2022-10-11T12:18:55.933Z,15.27
2022-10-11T12:21:25.216Z,15.45
2022-10-11T12:24:00.496Z,15.52
2022-10-11T12:26:47.680Z,15.69
2022-10-11T12:29:17.207Z,15.73
2022-10-11T12:31:46.326Z,15.65
2022-10-11T12:34:37.682Z,15.52
2022-10-11T12:37:19.592Z,15.31
2022-10-11T12:40:27.430Z,15.24
2022-10-11T12:43:12.037Z,15.27
2022-10-11T12:45:38.573Z,15.17
2022-10-11T12:48:22.674Z,15.21
2022-10-11T12:51:02.815Z,15.18
2022-10-11T12:54:25.611Z,15.07
2022-10-11T12:56:57.562Z,14.93
2022-10-11T12:59:24.538Z,14.83
2022-10-11T13:01:54.566Z,14.74
2022-10-11T13:04:25.284Z,14.73
2022-10-11T13:07:01.081Z,14.74
2022-10-11T13:09:39.123Z,14.61
2022-10-11T13:12:09.158Z,14.64
2022-10-11T13:14:42.342Z,14.88
2022-10-11T13:17:19.468Z,15.17
2022-10-11T13:19:46.149Z,15.41
2022-10-11T13:22:23.170Z,15.53
2022-10-11T13:24:49.684Z,15.47
2022-10-11T13:27:20.664Z,15.28
2022-10-11T13:29:49.089Z,15.24
2022-10-11T13:32:24.952Z,15.14
2022-10-11T13:35:01.590Z,15.06
2022-10-11T13:37:29.961Z,15.02
2022-10-11T13:39:57.578Z,14.97
2022-10-11T13:42:29.610Z,14.95
2022-10-11T13:44:56.320Z,14.92
2022-10-11T13:47:27.135Z,14.90
2022-10-11T13:50:15.474Z,14.85
2022-10-11T13:52:57.213Z,14.80
2022-10-11T13:55:30.404Z,14.77
2022-10-11T13:57:58.524Z,14.78
2022-10-11T14:00:34.904Z,14.78
2022-10-11T14:03:22.220Z,14.77
2022-10-11T14:05:55.704Z,14.78
2022-10-11T14:08:25.846Z,14.88
2022-10-11T14:10:56.725Z,15.08
2022-10-11T14:13:31.995Z,15.24
2022-10-11T14:16:18.630Z,15.22
2022-10-11T14:18:50.774Z,15.22
2022-10-11T14:21:23.300Z,15.33
2022-10-11T14:24:02.095Z,15.45
2022-10-11T14:26:33.734Z,15.51
2022-10-11T14:29:04.485Z,15.50
2022-10-11T14:31:31.168Z,15.62
2022-10-11T14:33:58.083Z,15.66
2022-10-11T14:36:26.013Z,15.71
2022-10-11T14:38:52.825Z,15.72
2022-10-11T14:41:19.535Z,15.81
2022-10-11T14:43:45.943Z,15.85
2022-10-11T14:46:24.934Z,15.88
2022-10-11T14:48:56.602Z,15.93
2022-10-11T14:51:29.914Z,15.88
2022-10-11T14:53:57.691Z,15.85
2022-10-11T14:56:24.302Z,15.80
2022-10-11T14:58:50.664Z,15.74
2022-10-11T15:01:17.514Z,15.71
2022-10-11T15:03:44.038Z,15.72
2022-10-11T15:06:36.112Z,15.66
2022-10-11T15:09:03.425Z,15.66
2022-10-11T15:11:29.772Z,15.68
2022-10-11T15:13:56.157Z,15.64
2022-10-11T15:16:23.102Z,15.62
2022-10-11T15:18:52.879Z,15.62
2022-10-11T15:21:22.879Z,15.52
2022-10-11T15:23:50.748Z,15.63
2022-10-11T15:26:21.336Z,15.74
2022-10-11T15:28:49.291Z,15.85
2022-10-11T15:31:15.811Z,15.88
2022-10-11T15:33:42.276Z,15.88
2022-10-11T15:36:14.867Z,15.84
2022-10-11T15:38:41.873Z,15.78
2022-10-11T15:41:12.843Z,15.69
2022-10-11T15:43:40.046Z,15.70
2022-10-11T15:46:06.729Z,15.71
2022-10-11T15:48:33.930Z,15.69
2022-10-11T15:51:00.390Z,15.69
2022-10-11T15:53:30.957Z,15.63
2022-10-11T15:56:00.916Z,15.64
2022-10-11T15:58:36.512Z,15.61
2022-10-11T16:01:09.782Z,15.50
2022-10-11T16:03:36.610Z,15.33
2022-10-11T16:06:05.469Z,15.16
2022-10-11T16:08:33.823Z,15.14
2022-10-11T16:11:00.862Z,15.12
2022-10-11T16:13:27.501Z,15.05
2022-10-11T16:15:54.041Z,14.94
2022-10-11T16:18:22.097Z,14.82
2022-10-11T16:20:51.641Z,14.82
2022-10-11T16:23:19.873Z,14.81
2022-10-11T16:25:46.255Z,14.75
2022-10-11T16:28:12.622Z,14.68
2022-10-11T16:30:43.108Z,14.61
2022-10-11T16:33:09.794Z,14.49
2022-10-11T16:35:36.278Z,14.38
2022-10-11T16:38:02.678Z,14.29
2022-10-11T16:40:30.062Z,14.18
2022-10-11T16:42:56.641Z,14.05
2022-10-11T16:45:23.406Z,13.95
2022-10-11T16:47:50.227Z,13.83
2022-10-11T16:50:16.599Z,13.73
2022-10-11T16:52:42.976Z,13.62
2022-10-11T16:55:09.698Z,13.53
2022-10-11T16:57:39.746Z,13.42
2022-10-11T17:00:08.999Z,13.19
2022-10-11T17:02:36.572Z,12.98
2022-10-11T17:05:03.886Z,12.80
2022-10-11T17:07:30.720Z,12.75
2022-10-11T17:09:57.952Z,12.71
2022-10-11T17:12:24.725Z,12.66
2022-10-11T17:14:51.397Z,12.60
2022-10-11T17:17:18.540Z,12.58
2022-10-11T17:19:47.269Z,12.45
2022-10-11T17:22:17.470Z,12.31
2022-10-11T17:24:44.759Z,12.27
2022-10-11T17:27:11.275Z,12.19
2022-10-11T17:29:37.835Z,12.11
2022-10-11T17:32:04.569Z,12.04
2022-10-11T17:34:31.072Z,11.95
2022-10-11T17:36:57.616Z,11.82
2022-10-11T17:39:25.679Z,11.68
2022-10-11T17:41:52.922Z,11.62
2022-10-11T17:44:19.702Z,11.55
2022-10-11T17:46:46.605Z,11.49
2022-10-11T17:49:13.902Z,11.46
2022-10-11T17:51:41.079Z,11.39
2022-10-11T17:54:12.254Z,11.25
2022-10-11T17:56:40.240Z,11.21
2022-10-11T17:59:07.686Z,11.15
2022-10-11T18:01:34.296Z,11.11
2022-10-11T18:04:03.420Z,11.06
2022-10-11T18:06:31.997Z,10.95
2022-10-11T18:09:02.979Z,10.86
2022-10-11T18:11:30.272Z,10.78
2022-10-11T18:13:56.748Z,10.68
2022-10-11T18:16:28.631Z,10.59
2022-10-11T18:18:57.211Z,10.48
2022-10-11T18:21:28.675Z,10.48
2022-10-11T18:24:02.572Z,10.41
2022-10-11T18:26:30.711Z,10.36
2022-10-11T18:28:57.551Z,10.31
2022-10-11T18:31:26.679Z,10.28
2022-10-11T18:34:03.889Z,10.24
2022-10-11T18:36:31.532Z,10.19
2022-10-11T18:39:03.813Z,10.10
2022-10-11T18:41:32.102Z,10.04
2022-10-11T18:44:01.704Z,10.01
2022-10-11T18:46:28.393Z,9.97
2022-10-11T18:48:57.089Z,9.92
2022-10-11T18:51:33.030Z,9.88
2022-10-11T18:53:59.958Z,9.84
2022-10-11T18:56:27.642Z,9.78
2022-10-11T18:58:55.942Z,9.72
2022-10-11T19:01:38.205Z,9.70
2022-10-11T19:04:07.120Z,9.68
2022-10-11T19:06:36.700Z,9.65
2022-10-11T19:09:17.812Z,9.58
2022-10-11T19:11:45.199Z,9.50
2022-10-11T19:14:14.710Z,9.41
2022-10-11T19:16:46.156Z,9.35
2022-10-11T19:19:12.905Z,9.30
2022-10-11T19:21:39.658Z,9.26
2022-10-11T19:24:06.390Z,9.20
2022-10-11T19:26:36.833Z,9.12
2022-10-11T19:29:09.955Z,9.03
2022-10-11T19:31:42.451Z,8.95
2022-10-11T19:34:10.181Z,8.90
2022-10-11T19:36:37.148Z,8.83
2022-10-11T19:39:04.986Z,8.77
2022-10-11T19:41:32.400Z,8.71
2022-10-11T19:43:58.994Z,8.66
2022-10-11T19:46:49.893Z,8.57
2022-10-11T19:49:15.735Z,8.47
2022-10-11T19:51:42.073Z,8.38
2022-10-11T19:54:11.675Z,8.32
2022-10-11T19:56:38.131Z,8.27
2022-10-11T19:59:06.296Z,8.22
2022-10-11T20:01:34.232Z,8.18
2022-10-11T20:04:06.701Z,8.14
2022-10-11T20:06:38.387Z,8.13
2022-10-11T20:09:27.923Z,8.09
2022-10-11T20:11:53.383Z,8.06
2022-10-11T20:14:20.550Z,8.04
2022-10-11T20:16:49.974Z,7.99
2022-10-11T20:19:16.574Z,7.95
2022-10-11T20:21:43.894Z,7.91
2022-10-11T20:24:10.342Z,7.81
2022-10-11T20:26:36.763Z,7.71
2022-10-11T20:29:03.331Z,7.61
2022-10-11T20:31:32.800Z,7.56
2022-10-11T20:34:01.991Z,7.56
2022-10-11T20:36:30.103Z,7.55
2022-10-11T20:38:58.318Z,7.57
2022-10-11T20:41:34.245Z,7.54
2022-10-11T20:44:02.103Z,7.55
2022-10-11T20:46:31.448Z,7.53
2022-10-11T20:49:03.452Z,7.43
2022-10-11T20:51:31.327Z,7.39
2022-10-11T20:53:58.575Z,7.29
2022-10-11T20:56:25.019Z,7.26
2022-10-11T20:58:53.538Z,7.21
2022-10-11T21:01:22.790Z,7.16
2022-10-11T21:03:50.290Z,7.08
2022-10-11T21:06:16.633Z,7.01
2022-10-11T21:08:43.016Z,6.94
2022-10-11T21:11:10.486Z,6.89
2022-10-11T21:13:37.375Z,6.84
2022-10-11T21:16:10.795Z,6.83
2022-10-11T21:18:37.770Z,6.74
2022-10-11T21:21:09.373Z,6.68
2022-10-11T21:23:35.835Z,6.66
2022-10-11T21:26:11.264Z,6.63
2022-10-11T21:28:38.645Z,6.58
2022-10-11T21:31:10.553Z,6.55
2022-10-11T21:33:38.120Z,6.52
2022-10-11T21:36:09.556Z,6.49
2022-10-11T21:38:36.238Z,6.42
2022-10-11T21:41:07.465Z,6.40
2022-10-11T21:43:35.661Z,6.43
2022-10-11T21:46:20.017Z,6.44
2022-10-11T21:48:47.266Z,6.48
2022-10-11T21:51:15.529Z,6.48
2022-10-11T21:53:41.984Z,6.51
2022-10-11T21:56:08.846Z,6.54
2022-10-11T21:58:35.270Z,6.57
2022-10-11T22:01:01.628Z,6.62
2022-10-11T22:03:28.224Z,6.66
2022-10-11T22:05:54.711Z,6.72
2022-10-11T22:08:21.228Z,6.76
2022-10-11T22:10:56.411Z,6.79
2022-10-11T22:13:24.254Z,6.78
2022-10-11T22:15:50.868Z,6.78
2022-10-11T22:18:17.383Z,6.78
2022-10-11T22:20:43.972Z,6.81
2022-10-11T22:23:11.496Z,6.84
2022-10-11T22:25:38.994Z,6.84
2022-10-11T22:28:06.619Z,6.86
2022-10-11T22:30:33.630Z,6.88
2022-10-11T22:32:59.970Z,6.91
2022-10-11T22:35:26.613Z,6.94
2022-10-11T22:37:53.195Z,6.95
2022-10-11T22:40:20.475Z,6.93
2022-10-11T22:42:46.918Z,6.90
2022-10-11T22:45:13.283Z,6.92
2022-10-11T22:47:39.628Z,6.91
2022-10-11T22:50:06.178Z,6.91
2022-10-11T22:52:32.564Z,6.90
2022-10-11T22:54:58.974Z,6.91
2022-10-11T22:57:25.343Z,6.94
2022-10-11T22:59:51.659Z,6.95
2022-10-11T23:02:18.006Z,6.96
2022-10-11T23:04:44.363Z,6.99
2022-10-11T23:07:10.711Z,6.99
2022-10-11T23:09:37.031Z,6.98
2022-10-11T23:12:03.522Z,7.01
2022-10-11T23:14:29.862Z,7.02
2022-10-11T23:16:56.187Z,7.00
2022-10-11T23:19:22.524Z,6.99
2022-10-11T23:21:48.876Z,6.98
2022-10-11T23:24:15.216Z,6.97
2022-10-11T23:26:41.560Z,6.95
2022-10-11T23:29:07.975Z,6.93
2022-10-11T23:31:34.481Z,6.93
2022-10-11T23:34:00.806Z,6.89
2022-10-11T23:36:27.224Z,6.86
2022-10-11T23:38:56.055Z,6.85
2022-10-11T23:41:24.349Z,6.86
2022-10-11T23:43:50.872Z,6.89
2022-10-11T23:46:17.264Z,6.87
2022-10-11T23:48:43.653Z,6.84
2022-10-11T23:51:10.238Z,6.81
2022-10-11T23:53:36.990Z,6.80
2022-10-11T23:56:04.697Z,6.76
2022-10-11T23:58:31.335Z,6.71
